createdAt,value
2022-08-23T00:02:31.963Z,24.28
2022-08-23T00:05:08.888Z,24.27
2022-08-23T00:07:45.233Z,24.26
2022-08-23T00:10:19.371Z,24.25
2022-08-23T00:12:51.640Z,24.25
2022-08-23T00:15:23.993Z,24.23
2022-08-23T00:17:56.533Z,24.22
2022-08-23T00:20:28.858Z,24.22
2022-08-23T00:23:01.143Z,24.21
2022-08-23T00:25:33.348Z,24.19
2022-08-23T00:28:11.444Z,24.15
2022-08-23T00:30:47.296Z,24.11
2022-08-23T00:33:19.498Z,24.12
2022-08-23T00:35:51.698Z,24.13
2022-08-23T00:38:34.036Z,24.13
2022-08-23T00:41:07.540Z,24.13
2022-08-23T00:44:00.932Z,24.12
2022-08-23T00:47:01.819Z,24.11
2022-08-23T00:49:37.234Z,24.09
2022-08-23T00:52:10.829Z,24.07
2022-08-23T00:54:44.427Z,24.03
2022-08-23T00:57:19.880Z,24.02
2022-08-23T00:59:52.094Z,24.01
2022-08-23T01:02:24.939Z,24.01
2022-08-23T01:04:59.638Z,23.99
2022-08-23T01:07:42.263Z,23.97
2022-08-23T01:10:22.382Z,23.93
2022-08-23T01:13:03.419Z,23.87
2022-08-23T01:15:40.084Z,23.84
2022-08-23T01:18:16.427Z,23.82
2022-08-23T01:21:03.002Z,23.82
2022-08-23T01:23:42.032Z,23.82
2022-08-23T01:26:22.054Z,23.82
2022-08-23T01:28:55.725Z,23.82
2022-08-23T01:31:28.207Z,23.80
2022-08-23T01:34:06.787Z,23.79
2022-08-23T01:36:39.700Z,23.77
2022-08-23T01:39:12.551Z,23.73
2022-08-23T01:41:45.071Z,23.70
2022-08-23T01:44:17.664Z,23.71
2022-08-23T01:46:50.690Z,23.71
2022-08-23T01:49:30.175Z,23.71
2022-08-23T01:52:02.512Z,23.70
2022-08-23T01:54:34.695Z,23.70
2022-08-23T01:57:08.897Z,23.69
2022-08-23T01:59:41.433Z,23.68
2022-08-23T02:02:15.215Z,23.68
2022-08-23T02:04:47.419Z,23.68
2022-08-23T02:07:20.900Z,23.67
2022-08-23T02:09:53.067Z,23.67
2022-08-23T02:12:25.512Z,23.66
2022-08-23T02:14:57.677Z,23.65
2022-08-23T02:17:29.904Z,23.64
2022-08-23T02:20:04.491Z,23.64
2022-08-23T02:22:37.770Z,23.61
2022-08-23T02:25:11.496Z,23.61
2022-08-23T02:27:44.290Z,23.59
2022-08-23T02:30:17.041Z,23.59
2022-08-23T02:32:49.200Z,23.58
2022-08-23T02:35:24.530Z,23.58
2022-08-23T02:37:56.685Z,23.57
2022-08-23T02:40:28.894Z,23.55
2022-08-23T02:43:01.225Z,23.53
2022-08-23T02:45:33.607Z,23.52
2022-08-23T02:48:06.491Z,23.51
2022-08-23T02:50:39.143Z,23.51
2022-08-23T02:53:11.373Z,23.50
2022-08-23T02:55:45.627Z,23.50
2022-08-23T02:58:17.911Z,23.47
2022-08-23T03:00:51.920Z,23.44
2022-08-23T03:03:24.355Z,23.43
2022-08-23T03:05:57.176Z,23.44
2022-08-23T03:08:49.647Z,23.44
2022-08-23T03:11:23.466Z,23.45
2022-08-23T03:13:57.646Z,23.45
2022-08-23T03:16:30.318Z,23.45
2022-08-23T03:19:03.031Z,23.44
2022-08-23T03:21:35.499Z,23.44
2022-08-23T03:24:10.356Z,23.42
2022-08-23T03:26:45.911Z,23.38
2022-08-23T03:29:18.993Z,23.40
2022-08-23T03:31:51.788Z,23.41
2022-08-23T03:34:26.679Z,23.42
2022-08-23T03:36:59.103Z,23.42
2022-08-23T03:39:31.667Z,23.42
2022-08-23T03:42:03.928Z,23.41
2022-08-23T03:44:36.176Z,23.40
2022-08-23T03:47:08.942Z,23.37
2022-08-23T03:49:41.562Z,23.30
2022-08-23T03:52:14.097Z,23.31
2022-08-23T03:54:46.239Z,23.28
2022-08-23T03:57:18.376Z,23.24
2022-08-23T03:59:50.668Z,23.18
2022-08-23T04:02:22.887Z,23.14
2022-08-23T04:04:55.076Z,23.11
2022-08-23T04:07:27.716Z,23.07
2022-08-23T04:09:59.900Z,23.06
2022-08-23T04:12:32.089Z,23.07
2022-08-23T04:15:05.363Z,23.06
2022-08-23T04:17:37.659Z,23.02
2022-08-23T04:20:11.572Z,23.00
2022-08-23T04:22:45.930Z,22.99
2022-08-23T04:25:34.996Z,22.99
2022-08-23T04:28:08.011Z,23.00
2022-08-23T04:30:40.146Z,23.02
2022-08-23T04:33:17.882Z,23.02
2022-08-23T04:35:50.519Z,23.00
2022-08-23T04:38:24.457Z,22.98
2022-08-23T04:41:16.123Z,22.97
2022-08-23T04:43:48.839Z,22.93
2022-08-23T04:46:21.102Z,22.90
2022-08-23T04:48:54.254Z,22.86
2022-08-23T04:51:26.432Z,22.82
2022-08-23T04:53:58.664Z,22.81
2022-08-23T04:56:31.258Z,22.88
2022-08-23T04:59:03.552Z,22.95
2022-08-23T05:01:36.283Z,23.00
2022-08-23T05:04:09.208Z,23.05
2022-08-23T05:06:41.392Z,23.13
2022-08-23T05:09:17.235Z,23.20
2022-08-23T05:11:52.674Z,23.30
2022-08-23T05:14:24.813Z,23.38
2022-08-23T05:16:57.524Z,23.45
2022-08-23T05:19:29.768Z,23.52
2022-08-23T05:22:01.971Z,23.60
2022-08-23T05:24:34.264Z,23.64
2022-08-23T05:27:08.684Z,23.68
2022-08-23T05:29:44.011Z,23.73
2022-08-23T05:32:16.159Z,23.81
2022-08-23T05:34:48.577Z,23.89
2022-08-23T05:37:20.844Z,23.97
2022-08-23T05:39:53.208Z,24.05
2022-08-23T05:42:25.839Z,24.12
2022-08-23T05:44:58.087Z,24.20
2022-08-23T05:47:33.787Z,24.26
2022-08-23T05:50:07.409Z,24.32
2022-08-23T05:52:39.800Z,24.36
2022-08-23T05:55:12.371Z,24.38
2022-08-23T05:57:44.630Z,24.48
2022-08-23T06:00:17.202Z,24.57
2022-08-23T06:02:50.498Z,24.67
2022-08-23T06:05:22.707Z,24.73
2022-08-23T06:07:56.719Z,24.76
2022-08-23T06:10:28.912Z,24.79
2022-08-23T06:13:02.990Z,24.81
2022-08-23T06:15:35.187Z,24.85
2022-08-23T06:18:07.399Z,24.95
2022-08-23T06:20:39.684Z,25.08
2022-08-23T06:23:12.235Z,25.19
2022-08-23T06:25:44.476Z,25.24
2022-08-23T06:28:16.680Z,25.34
2022-08-23T06:30:48.915Z,25.47
2022-08-23T06:33:21.744Z,25.65
2022-08-23T06:36:06.340Z,25.80
2022-08-23T06:38:38.904Z,26.01
2022-08-23T06:41:13.947Z,26.20
2022-08-23T06:43:48.819Z,26.44
2022-08-23T06:46:21.292Z,26.66
2022-08-23T06:48:56.315Z,26.81
2022-08-23T06:51:31.768Z,26.90
2022-08-23T06:54:07.159Z,26.96
2022-08-23T06:56:40.671Z,27.12
2022-08-23T06:59:13.556Z,27.37
2022-08-23T07:01:48.296Z,27.61
2022-08-23T07:04:23.324Z,27.87
2022-08-23T07:06:55.756Z,28.14
2022-08-23T07:09:28.334Z,28.36
2022-08-23T07:12:01.659Z,28.39
2022-08-23T07:14:33.956Z,28.40
2022-08-23T07:17:06.680Z,28.57
2022-08-23T07:19:39.311Z,28.72
2022-08-23T07:22:12.124Z,28.98
2022-08-23T07:24:44.650Z,29.24
2022-08-23T07:27:16.881Z,29.39
2022-08-23T07:29:49.275Z,29.28
2022-08-23T07:32:21.453Z,29.10
2022-08-23T07:34:53.697Z,29.04
2022-08-23T07:37:26.461Z,28.86
2022-08-23T07:39:59.129Z,28.79
2022-08-23T07:42:31.404Z,28.95
2022-08-23T07:45:04.168Z,29.01
2022-08-23T07:47:36.792Z,28.96
2022-08-23T07:50:10.667Z,28.92
2022-08-23T07:52:42.963Z,28.97
2022-08-23T07:55:15.277Z,29.14
2022-08-23T07:57:47.428Z,29.16
2022-08-23T08:00:20.138Z,29.31
2022-08-23T08:02:52.643Z,29.48
2022-08-23T08:05:27.360Z,29.54
2022-08-23T08:07:59.719Z,29.62
2022-08-23T08:10:32.311Z,29.56
2022-08-23T08:13:04.506Z,29.41
2022-08-23T08:15:37.107Z,29.40
2022-08-23T08:18:09.327Z,29.54
2022-08-23T08:20:46.090Z,29.71
2022-08-23T08:23:18.312Z,29.94
2022-08-23T08:25:50.517Z,30.17
2022-08-23T08:28:23.901Z,30.44
2022-08-23T08:30:56.192Z,30.66
2022-08-23T08:33:30.864Z,30.90
2022-08-23T08:36:03.741Z,31.21
2022-08-23T08:38:48.267Z,31.37
2022-08-23T08:41:37.740Z,31.34
2022-08-23T08:44:21.304Z,31.53
2022-08-23T08:46:57.918Z,31.86
2022-08-23T08:49:38.069Z,32.13
2022-08-23T08:52:16.304Z,32.40
2022-08-23T08:54:53.268Z,32.57
2022-08-23T08:57:27.883Z,32.81
2022-08-23T09:00:04.273Z,33.06
2022-08-23T09:02:38.939Z,33.25
2022-08-23T09:05:15.892Z,33.33
2022-08-23T09:07:59.472Z,33.25
2022-08-23T09:10:54.259Z,33.03
2022-08-23T09:13:53.713Z,32.95
2022-08-23T09:16:41.223Z,33.09
2022-08-23T09:19:13.728Z,33.19
2022-08-23T09:21:49.629Z,33.37
2022-08-23T09:24:22.251Z,33.59
2022-08-23T09:26:55.031Z,33.58
2022-08-23T09:29:30.034Z,33.49
2022-08-23T09:32:03.612Z,33.46
2022-08-23T09:34:43.840Z,33.44
2022-08-23T09:37:20.743Z,33.57
2022-08-23T09:39:55.824Z,33.80
2022-08-23T09:42:36.004Z,33.98
2022-08-23T09:45:26.556Z,33.79
2022-08-23T09:47:58.985Z,33.59
2022-08-23T09:50:35.514Z,33.54
2022-08-23T09:53:11.132Z,33.43
2022-08-23T09:55:48.235Z,33.23
2022-08-23T09:58:27.551Z,32.98
2022-08-23T10:01:19.605Z,32.53
2022-08-23T10:04:10.691Z,32.47
2022-08-23T10:06:46.167Z,32.49
2022-08-23T10:09:28.708Z,32.35
2022-08-23T10:12:02.981Z,32.28
2022-08-23T10:14:35.347Z,32.36
2022-08-23T10:17:19.745Z,32.62
2022-08-23T10:20:00.118Z,32.57
2022-08-23T10:22:42.086Z,32.60
2022-08-23T10:25:20.016Z,32.69
2022-08-23T10:28:21.867Z,32.75
2022-08-23T10:31:01.504Z,32.72
2022-08-23T10:33:43.471Z,32.27
2022-08-23T10:36:22.404Z,32.03
2022-08-23T10:39:00.808Z,31.83
2022-08-23T10:41:51.723Z,31.81
2022-08-23T10:44:33.304Z,31.99
2022-08-23T10:47:16.745Z,31.92
2022-08-23T10:49:53.551Z,31.97
2022-08-23T10:52:31.125Z,32.02
2022-08-23T10:55:17.535Z,32.07
2022-08-23T10:57:53.378Z,31.93
2022-08-23T11:00:29.319Z,31.84
2022-08-23T11:03:19.190Z,31.87
2022-08-23T11:06:42.169Z,31.94
2022-08-23T11:09:32.805Z,32.06
2022-08-23T11:12:20.215Z,32.05
2022-08-23T11:15:05.153Z,31.89
2022-08-23T11:17:53.917Z,31.71
2022-08-23T11:21:01.226Z,31.55
2022-08-23T11:23:43.564Z,31.43
2022-08-23T11:26:53.344Z,31.25
2022-08-23T11:29:34.761Z,31.02
2022-08-23T11:32:26.931Z,30.98
2022-08-23T11:35:10.261Z,31.07
2022-08-23T11:38:03.833Z,31.04
2022-08-23T11:41:12.779Z,31.07
2022-08-23T11:43:47.803Z,31.18
2022-08-23T11:46:37.386Z,31.26
2022-08-23T11:49:32.184Z,31.21
2022-08-23T11:52:17.335Z,31.10
2022-08-23T11:55:08.612Z,31.13
2022-08-23T11:57:57.923Z,31.15
2022-08-23T12:00:51.347Z,30.94
2022-08-23T12:03:34.113Z,30.77
2022-08-23T12:06:31.878Z,30.73
2022-08-23T12:09:12.411Z,30.78
2022-08-23T12:12:27.727Z,30.85
2022-08-23T12:15:02.412Z,30.84
2022-08-23T12:18:11.648Z,30.87
2022-08-23T12:20:48.448Z,30.91
2022-08-23T12:23:23.147Z,31.00
2022-08-23T12:26:14.038Z,31.01
2022-08-23T12:28:50.963Z,31.02
2022-08-23T12:31:34.248Z,31.00
2022-08-23T12:34:25.774Z,30.87
2022-08-23T12:37:09.578Z,30.70
2022-08-23T12:39:50.414Z,30.64
2022-08-23T12:42:29.382Z,30.71
2022-08-23T12:45:09.919Z,30.81
2022-08-23T12:47:43.514Z,30.88
2022-08-23T12:50:32.846Z,30.93
2022-08-23T12:53:09.917Z,30.93
2022-08-23T12:55:45.279Z,30.91
2022-08-23T12:58:16.934Z,30.94
2022-08-23T13:00:58.320Z,30.93
2022-08-23T13:03:35.973Z,30.85
2022-08-23T13:06:11.843Z,30.80
2022-08-23T13:08:49.255Z,30.80
2022-08-23T13:11:26.248Z,30.85
2022-08-23T13:13:58.699Z,30.83
2022-08-23T13:16:43.865Z,30.79
2022-08-23T13:19:31.841Z,30.83
2022-08-23T13:22:22.266Z,30.87
2022-08-23T13:28:03.059Z,30.86
2022-08-23T13:30:37.354Z,30.85
2022-08-23T13:33:25.579Z,30.89
2022-08-23T13:36:13.247Z,30.96
2022-08-23T13:38:47.066Z,31.02
2022-08-23T13:41:38.414Z,31.00
2022-08-23T13:44:15.623Z,30.96
2022-08-23T13:46:51.314Z,30.90
2022-08-23T13:49:28.718Z,30.88
2022-08-23T13:52:41.609Z,30.85
2022-08-23T13:55:03.255Z,30.85
2022-08-23T13:57:37.336Z,30.88
2022-08-23T14:00:15.335Z,30.91
2022-08-23T14:02:51.020Z,30.93
2022-08-23T14:05:25.151Z,30.93
2022-08-23T14:07:57.478Z,30.88
2022-08-23T14:10:30.176Z,30.86
2022-08-23T14:13:03.098Z,30.84
2022-08-23T14:18:28.280Z,30.91
2022-08-23T14:21:02.003Z,30.87
2022-08-23T14:23:34.224Z,30.87
2022-08-23T14:26:06.827Z,30.92
2022-08-23T14:28:44.290Z,30.96
2022-08-23T14:31:16.790Z,30.95
2022-08-23T14:33:49.555Z,30.98
2022-08-23T14:36:22.037Z,30.99
2022-08-23T14:38:57.445Z,31.01
2022-08-23T14:41:31.856Z,31.05
2022-08-23T14:44:05.144Z,31.07
2022-08-23T14:46:37.356Z,31.03
2022-08-23T14:49:09.626Z,31.00
2022-08-23T14:51:46.318Z,30.96
2022-08-23T14:54:23.031Z,30.93
2022-08-23T14:56:55.727Z,30.92
2022-08-23T14:59:27.979Z,30.92
2022-08-23T15:02:01.001Z,30.92
2022-08-23T15:04:34.301Z,30.93
2022-08-23T15:07:18.275Z,30.96
2022-08-23T15:09:55.907Z,30.95
2022-08-23T15:15:22.345Z,30.88
2022-08-23T15:17:58.008Z,30.85
2022-08-23T15:20:34.443Z,30.80
2022-08-23T15:23:08.015Z,30.73
2022-08-23T15:25:42.300Z,30.71
2022-08-23T15:28:16.865Z,30.70
2022-08-23T15:30:50.604Z,30.65
2022-08-23T15:33:27.004Z,30.59
2022-08-23T15:36:03.650Z,30.57
2022-08-23T15:38:36.797Z,30.56
2022-08-23T15:41:09.596Z,30.52
2022-08-23T15:43:43.119Z,30.48
2022-08-23T15:46:21.642Z,30.41
2022-08-23T15:48:58.940Z,30.33
2022-08-23T15:51:31.380Z,30.24
2022-08-23T15:54:04.096Z,30.10
2022-08-23T15:56:41.353Z,29.95
2022-08-23T15:59:17.626Z,29.79
2022-08-23T16:01:49.920Z,29.64
2022-08-23T16:04:22.127Z,29.55
2022-08-23T16:06:54.294Z,29.48
2022-08-23T16:09:28.162Z,29.42
2022-08-23T16:12:00.662Z,29.38
2022-08-23T16:14:33.152Z,29.33
2022-08-23T16:17:06.100Z,29.31
2022-08-23T16:19:38.425Z,29.29
2022-08-23T16:22:10.650Z,29.23
2022-08-23T16:24:42.990Z,29.17
2022-08-23T16:27:15.242Z,29.10
2022-08-23T16:29:47.389Z,29.03
2022-08-23T16:32:19.593Z,28.97
2022-08-23T16:34:51.944Z,28.86
2022-08-23T16:37:24.195Z,28.76
2022-08-23T16:39:56.487Z,28.68
2022-08-23T16:42:28.676Z,28.60
2022-08-23T16:45:01.029Z,28.55
2022-08-23T16:47:34.947Z,28.52
2022-08-23T16:50:08.267Z,28.49
2022-08-23T16:52:40.496Z,28.45
2022-08-23T16:55:14.586Z,28.32
2022-08-23T16:57:46.804Z,27.92
2022-08-23T17:00:19.893Z,27.55
2022-08-23T17:02:52.114Z,27.23
2022-08-23T17:05:25.022Z,26.98
2022-08-23T17:07:57.308Z,26.64
2022-08-23T17:10:30.840Z,26.22
2022-08-23T17:13:03.670Z,25.90
2022-08-23T17:15:38.051Z,25.64
2022-08-23T17:18:10.735Z,25.31
2022-08-23T17:20:43.829Z,24.88
2022-08-23T17:23:16.147Z,24.57
2022-08-23T17:25:50.555Z,24.31
2022-08-23T17:28:22.928Z,23.89
2022-08-23T17:30:55.485Z,23.41
2022-08-23T17:33:28.654Z,23.05
2022-08-23T17:36:00.824Z,22.77
2022-08-23T17:38:33.160Z,22.59
2022-08-23T17:41:05.319Z,22.49
2022-08-23T17:43:37.576Z,22.41
2022-08-23T17:46:10.054Z,22.37
2022-08-23T17:48:42.420Z,22.33
2022-08-23T17:51:14.577Z,22.33
2022-08-23T17:53:47.556Z,22.32
2022-08-23T17:56:19.762Z,22.32
2022-08-23T17:58:52.979Z,22.35
2022-08-23T18:01:25.366Z,22.35
2022-08-23T18:03:57.931Z,22.35
2022-08-23T18:06:30.125Z,22.32
2022-08-23T18:09:03.506Z,22.30
2022-08-23T18:11:36.579Z,22.31
2022-08-23T18:14:09.467Z,22.33
2022-08-23T18:16:44.099Z,22.31
2022-08-23T18:19:18.516Z,22.26
2022-08-23T18:21:50.864Z,22.20
2022-08-23T18:24:23.204Z,22.20
2022-08-23T18:27:13.080Z,22.16
2022-08-23T18:29:45.644Z,21.99
2022-08-23T18:32:23.811Z,21.77
2022-08-23T18:34:56.153Z,21.41
2022-08-23T18:37:28.439Z,20.85
2022-08-23T18:40:00.996Z,20.44
2022-08-23T18:42:33.259Z,20.18
2022-08-23T18:45:05.907Z,20.00
2022-08-23T18:47:39.080Z,19.90
2022-08-23T18:50:14.548Z,19.82
2022-08-23T18:52:46.782Z,19.81
2022-08-23T18:55:20.341Z,19.82
2022-08-23T18:57:52.484Z,19.87
2022-08-23T19:00:24.672Z,19.97
2022-08-23T19:02:57.447Z,20.06
2022-08-23T19:05:41.682Z,20.12
2022-08-23T19:08:15.879Z,20.19
2022-08-23T19:10:48.769Z,20.25
2022-08-23T19:13:20.990Z,20.34
2022-08-23T19:15:53.529Z,20.42
2022-08-23T19:18:25.782Z,20.48
2022-08-23T19:20:57.968Z,20.53
2022-08-23T19:23:30.217Z,20.60
2022-08-23T19:26:03.575Z,20.63
2022-08-23T19:28:38.627Z,20.61
2022-08-23T19:31:11.654Z,20.60
2022-08-23T19:33:44.347Z,20.65
2022-08-23T19:36:42.769Z,20.72
2022-08-23T19:39:09.864Z,20.77
2022-08-23T19:41:42.379Z,20.85
2022-08-23T19:44:15.131Z,20.91
2022-08-23T19:46:50.067Z,20.97
2022-08-23T19:49:23.048Z,20.98
2022-08-23T19:51:55.441Z,20.96
2022-08-23T19:54:28.399Z,20.96
2022-08-23T19:57:02.091Z,21.00
2022-08-23T19:59:36.679Z,21.03
2022-08-23T20:02:09.900Z,20.98
2022-08-23T20:04:42.271Z,20.95
2022-08-23T20:07:14.397Z,21.00
2022-08-23T20:09:47.205Z,21.01
2022-08-23T20:12:19.443Z,20.95
2022-08-23T20:14:51.629Z,20.94
2022-08-23T20:17:24.145Z,20.98
2022-08-23T20:19:56.786Z,21.01
2022-08-23T20:22:54.732Z,21.01
2022-08-23T20:25:27.687Z,21.03
2022-08-23T20:27:59.991Z,21.02
2022-08-23T20:30:32.188Z,20.96
2022-08-23T20:33:05.079Z,20.89
2022-08-23T20:35:37.270Z,20.83
2022-08-23T20:38:09.491Z,20.83
2022-08-23T20:41:01.679Z,20.86
2022-08-23T20:43:39.203Z,20.87
2022-08-23T20:46:11.835Z,20.94
2022-08-23T20:48:44.141Z,20.98
2022-08-23T20:51:16.375Z,21.00
2022-08-23T20:53:48.608Z,21.04
2022-08-23T20:56:21.651Z,21.05
2022-08-23T20:58:54.339Z,21.07
2022-08-23T21:01:26.603Z,21.11
2022-08-23T21:03:58.795Z,21.19
2022-08-23T21:06:38.741Z,21.26
2022-08-23T21:09:12.401Z,21.32
2022-08-23T21:11:45.390Z,21.36
2022-08-23T21:14:20.744Z,21.39
2022-08-23T21:16:53.225Z,21.40
2022-08-23T21:19:25.700Z,21.44
2022-08-23T21:21:58.613Z,21.46
2022-08-23T21:24:32.402Z,21.45
2022-08-23T21:27:09.585Z,21.46
2022-08-23T21:29:42.297Z,21.45
2022-08-23T21:32:14.479Z,21.46
2022-08-23T21:34:46.993Z,21.44
2022-08-23T21:37:19.215Z,21.40
2022-08-23T21:39:52.708Z,21.38
2022-08-23T21:42:26.228Z,21.36
2022-08-23T21:44:58.415Z,21.35
2022-08-23T21:47:30.528Z,21.36
2022-08-23T21:50:02.692Z,21.37
2022-08-23T21:52:34.900Z,21.38
2022-08-23T21:55:08.767Z,21.39
2022-08-23T21:57:41.404Z,21.42
2022-08-23T22:00:17.462Z,21.44
2022-08-23T22:02:49.634Z,21.46
2022-08-23T22:05:21.931Z,21.48
2022-08-23T22:07:54.259Z,21.47
2022-08-23T22:10:27.704Z,21.48
2022-08-23T22:13:01.675Z,21.49
2022-08-23T22:15:33.981Z,21.50
2022-08-23T22:18:06.918Z,21.52
2022-08-23T22:20:39.203Z,21.52
2022-08-23T22:23:11.693Z,21.52
2022-08-23T22:25:43.885Z,21.53
2022-08-23T22:28:16.064Z,21.53
2022-08-23T22:30:48.366Z,21.55
2022-08-23T22:33:20.620Z,21.56
2022-08-23T22:35:52.793Z,21.59
2022-08-23T22:38:25.749Z,21.60
2022-08-23T22:40:58.411Z,21.60
2022-08-23T22:43:30.798Z,21.61
2022-08-23T22:46:05.015Z,21.64
2022-08-23T22:48:37.388Z,21.64
2022-08-23T22:51:12.784Z,21.65
2022-08-23T22:53:47.645Z,21.67
2022-08-23T22:56:23.103Z,21.67
2022-08-23T22:58:55.491Z,21.67
2022-08-23T23:01:29.657Z,21.66
2022-08-23T23:04:03.657Z,21.62
2022-08-23T23:06:36.279Z,21.57
2022-08-23T23:09:09.845Z,21.54
2022-08-23T23:11:42.742Z,21.54
2022-08-23T23:14:16.529Z,21.55
2022-08-23T23:16:50.231Z,21.57
2022-08-23T23:19:40.780Z,21.60
2022-08-23T23:22:12.984Z,21.62
2022-08-23T23:24:45.125Z,21.63
2022-08-23T23:27:17.294Z,21.63
2022-08-23T23:29:49.534Z,21.63
2022-08-23T23:32:22.021Z,21.67
2022-08-23T23:34:54.342Z,21.66
2022-08-23T23:37:30.468Z,21.66
2022-08-23T23:40:02.875Z,21.66
2022-08-23T23:42:35.119Z,21.66
2022-08-23T23:45:09.049Z,21.65
2022-08-23T23:47:42.633Z,21.65
2022-08-23T23:50:16.907Z,21.62
2022-08-23T23:52:49.167Z,21.59
2022-08-23T23:55:23.135Z,21.58
2022-08-23T23:57:56.899Z,21.58
